AVN185 NVVV-AGGH
Flight info
| Callsign | AVN185 |
|---|---|
| Flight time | 1h 48m |
| Altitude | 38000 |
| Route | EMTEN1 JOZEF DCT SON DCT AKNAK DCT VAKRO VAKRO1A |
| Aircraft | A339/H-SADE1E2E3GHIJ3J5M1P2RWXY/LB2D1 |
Departure
| Time | 2026-05-01 09:58 |
|---|---|
| Airport | Bauerfield International Airport (NVVV) |
Arrival
| Time | 2026-05-01 11:47 |
|---|---|
| Airport | Honiara International Airport (AGGH) |
| Time | Latitude | Longitude | Altitude | Speed | Heading |
|---|---|---|---|---|---|
| 2026-05-01 09:47 | -17.70078 | 168.31888 | 65 ft | 0 kts | 207° |
| 2026-05-01 09:53 | -17.70067 | 168.31891 | 56 ft | 2 kts | 231° |
| 2026-05-01 09:53 | -17.70063 | 168.31911 | 57 ft | 0 kts | 134° |
| 2026-05-01 09:54 | -17.70065 | 168.31919 | 65 ft | 2 kts | 116° |
| 2026-05-01 09:54 | -17.70053 | 168.31935 | 57 ft | 4 kts | 52° |
| 2026-05-01 09:54 | -17.70012 | 168.31951 | 59 ft | 9 kts | 15° |
| 2026-05-01 09:55 | -17.69933 | 168.31931 | 59 ft | 14 kts | 320° |
| 2026-05-01 09:55 | -17.69876 | 168.31827 | 64 ft | 19 kts | 298° |
| 2026-05-01 09:55 | -17.69803 | 168.31685 | 61 ft | 25 kts | 298° |
| 2026-05-01 09:55 | -17.69717 | 168.31509 | 55 ft | 29 kts | 293° |
| 2026-05-01 09:56 | -17.69596 | 168.31346 | 55 ft | 29 kts | 307° |
| 2026-05-01 09:56 | -17.69536 | 168.31160 | 54 ft | 27 kts | 258° |
| 2026-05-01 09:56 | -17.69467 | 168.31023 | 54 ft | 20 kts | 319° |
| 2026-05-01 09:56 | -17.69375 | 168.30911 | 55 ft | 21 kts | 302° |
| 2026-05-01 09:57 | -17.69280 | 168.30804 | 49 ft | 20 kts | 326° |
| 2026-05-01 09:57 | -17.69245 | 168.30712 | 48 ft | 3 kts | 236° |
| 2026-05-01 09:57 | -17.69262 | 168.30712 | 50 ft | 2 kts | 187° |
| 2026-05-01 09:57 | -17.69293 | 168.30736 | 52 ft | 8 kts | 126° |
| 2026-05-01 09:58 | -17.69326 | 168.30790 | 49 ft | 14 kts | 120° |
| 2026-05-01 09:58 | -17.69517 | 168.31169 | 50 ft | 102 kts | 119° |
| 2026-05-01 09:58 | -17.69976 | 168.32067 | 64 ft | 172 kts | 118° |
| 2026-05-01 09:58 | -17.70563 | 168.33228 | 767 ft | 177 kts | 118° |
| 2026-05-01 09:59 | -17.71205 | 168.34310 | 1772 ft | 175 kts | 131° |
| 2026-05-01 09:59 | -17.72210 | 168.35098 | 2424 ft | 192 kts | 152° |
| 2026-05-01 09:59 | -17.73557 | 168.35499 | 2772 ft | 217 kts | 169° |
| 2026-05-01 09:59 | -17.75132 | 168.35467 | 3204 ft | 240 kts | 186° |
| 2026-05-01 10:00 | -17.76788 | 168.34854 | 3528 ft | 263 kts | 206° |
| 2026-05-01 10:00 | -17.78213 | 168.33573 | 4049 ft | 278 kts | 228° |
| 2026-05-01 10:00 | -17.79149 | 168.31777 | 4724 ft | 284 kts | 248° |
| 2026-05-01 10:00 | -17.79501 | 168.29713 | 5317 ft | 290 kts | 269° |
| 2026-05-01 10:01 | -17.79256 | 168.27629 | 6088 ft | 288 kts | 284° |
| 2026-05-01 10:01 | -17.78521 | 168.25669 | 6736 ft | 289 kts | 300° |
| 2026-05-01 10:01 | -17.77311 | 168.23968 | 7261 ft | 292 kts | 316° |
| 2026-05-01 10:01 | -17.75729 | 168.22692 | 7901 ft | 290 kts | 332° |
| 2026-05-01 10:02 | -17.73865 | 168.21884 | 8495 ft | 292 kts | 347° |
| 2026-05-01 10:02 | -17.71881 | 168.21441 | 9099 ft | 293 kts | 349° |
| 2026-05-01 10:02 | -17.69874 | 168.20991 | 9736 ft | 294 kts | 348° |
| 2026-05-01 10:02 | -17.67870 | 168.20507 | 10256 ft | 299 kts | 347° |
| 2026-05-01 10:03 | -17.65776 | 168.19977 | 10412 ft | 317 kts | 346° |
| 2026-05-01 10:03 | -17.63575 | 168.19410 | 10553 ft | 334 kts | 346° |
| 2026-05-01 10:03 | -17.61267 | 168.18813 | 10817 ft | 345 kts | 346° |
| 2026-05-01 10:03 | -17.58925 | 168.18213 | 11328 ft | 347 kts | 345° |
| 2026-05-01 10:04 | -17.56594 | 168.17617 | 11822 ft | 350 kts | 346° |
| 2026-05-01 10:04 | -17.54223 | 168.17011 | 12357 ft | 352 kts | 345° |
| 2026-05-01 10:04 | -17.51834 | 168.16400 | 12843 ft | 355 kts | 345° |
| 2026-05-01 10:04 | -17.49423 | 168.15784 | 13355 ft | 357 kts | 345° |
| 2026-05-01 10:05 | -17.46997 | 168.15164 | 13849 ft | 360 kts | 345° |
| 2026-05-01 10:05 | -17.44601 | 168.14389 | 14281 ft | 361 kts | 336° |
| 2026-05-01 10:05 | -17.42328 | 168.13277 | 14760 ft | 362 kts | 333° |
| 2026-05-01 10:05 | -17.40041 | 168.12144 | 15231 ft | 363 kts | 333° |
| 2026-05-01 10:06 | -17.37769 | 168.11034 | 15722 ft | 363 kts | 333° |
| 2026-05-01 10:06 | -17.35464 | 168.09916 | 16140 ft | 367 kts | 334° |
| 2026-05-01 10:06 | -17.33135 | 168.08792 | 16587 ft | 368 kts | 334° |
| 2026-05-01 10:06 | -17.30800 | 168.07666 | 17018 ft | 371 kts | 333° |
| 2026-05-01 10:07 | -17.28451 | 168.06535 | 17465 ft | 372 kts | 333° |
| 2026-05-01 10:07 | -17.26075 | 168.05389 | 17907 ft | 374 kts | 333° |
| 2026-05-01 10:07 | -17.23729 | 168.04259 | 18332 ft | 376 kts | 333° |
| 2026-05-01 10:07 | -17.21351 | 168.03112 | 18706 ft | 378 kts | 333° |
| 2026-05-01 10:08 | -17.16535 | 168.00791 | 19456 ft | 383 kts | 333° |
| 2026-05-01 10:08 | -17.14108 | 167.99622 | 19844 ft | 385 kts | 333° |
| 2026-05-01 10:08 | -17.11667 | 167.98447 | 20206 ft | 387 kts | 333° |
| 2026-05-01 10:09 | -17.09214 | 167.97266 | 20590 ft | 389 kts | 332° |
| 2026-05-01 10:09 | -17.06745 | 167.96078 | 20976 ft | 391 kts | 332° |
| 2026-05-01 10:09 | -17.04262 | 167.94884 | 21311 ft | 395 kts | 332° |
| 2026-05-01 10:09 | -17.01753 | 167.93675 | 21649 ft | 398 kts | 333° |
| 2026-05-01 10:10 | -16.99225 | 167.92459 | 22029 ft | 400 kts | 332° |
| 2026-05-01 10:10 | -16.96681 | 167.91238 | 22417 ft | 403 kts | 332° |
| 2026-05-01 10:10 | -16.91581 | 167.88790 | 23153 ft | 408 kts | 332° |
| 2026-05-01 10:11 | -16.88988 | 167.87546 | 23531 ft | 410 kts | 332° |
| 2026-05-01 10:11 | -16.86376 | 167.86293 | 23860 ft | 412 kts | 332° |
| 2026-05-01 10:11 | -16.83789 | 167.85052 | 24217 ft | 413 kts | 332° |
| 2026-05-01 10:11 | -16.81173 | 167.83799 | 24558 ft | 415 kts | 332° |
| 2026-05-01 10:12 | -16.78542 | 167.82538 | 24911 ft | 416 kts | 332° |
| 2026-05-01 10:12 | -16.76797 | 167.81702 | 25150 ft | 417 kts | 332° |
| 2026-05-01 10:12 | -16.70598 | 167.78732 | 25931 ft | 420 kts | 332° |
| 2026-05-01 10:13 | -16.67935 | 167.77457 | 26253 ft | 422 kts | 332° |
| 2026-05-01 10:13 | -16.65280 | 167.76185 | 26529 ft | 425 kts | 332° |
| 2026-05-01 10:13 | -16.62577 | 167.74892 | 26861 ft | 426 kts | 332° |
| 2026-05-01 10:14 | -16.57171 | 167.72308 | 27498 ft | 429 kts | 332° |
| 2026-05-01 10:14 | -16.54453 | 167.71009 | 27816 ft | 431 kts | 331° |
| 2026-05-01 10:14 | -16.51721 | 167.69704 | 28127 ft | 432 kts | 331° |
| 2026-05-01 10:14 | -16.48981 | 167.68394 | 28446 ft | 434 kts | 331° |
| 2026-05-01 10:15 | -16.46264 | 167.67097 | 28766 ft | 435 kts | 331° |
| 2026-05-01 10:15 | -16.43506 | 167.65780 | 29031 ft | 437 kts | 331° |
| 2026-05-01 10:15 | -16.40738 | 167.64458 | 29322 ft | 438 kts | 331° |
| 2026-05-01 10:15 | -16.37955 | 167.63128 | 29589 ft | 440 kts | 331° |
| 2026-05-01 10:16 | -16.35163 | 167.61799 | 29888 ft | 441 kts | 331° |
| 2026-05-01 10:16 | -16.32359 | 167.60472 | 30143 ft | 443 kts | 331° |
| 2026-05-01 10:16 | -16.26689 | 167.57764 | 30609 ft | 448 kts | 331° |
| 2026-05-01 10:17 | -16.23851 | 167.56409 | 30909 ft | 449 kts | 331° |
| 2026-05-01 10:17 | -16.18180 | 167.53709 | 31443 ft | 453 kts | 331° |
| 2026-05-01 10:17 | -16.15313 | 167.52346 | 31706 ft | 454 kts | 331° |
| 2026-05-01 10:18 | -16.09547 | 167.49605 | 32223 ft | 457 kts | 331° |
| 2026-05-01 10:18 | -16.06647 | 167.48227 | 32454 ft | 458 kts | 331° |
| 2026-05-01 10:18 | -16.03744 | 167.46847 | 32653 ft | 460 kts | 331° |
| 2026-05-01 10:19 | -16.00827 | 167.45461 | 32851 ft | 461 kts | 331° |
| 2026-05-01 10:19 | -15.97904 | 167.44073 | 33015 ft | 462 kts | 331° |
| 2026-05-01 10:19 | -15.94975 | 167.42680 | 33208 ft | 461 kts | 332° |
| 2026-05-01 10:20 | -15.89158 | 167.39920 | 33468 ft | 463 kts | 332° |
| 2026-05-01 10:20 | -15.86225 | 167.38530 | 33624 ft | 463 kts | 332° |
| 2026-05-01 10:20 | -15.83301 | 167.37144 | 33785 ft | 462 kts | 332° |
| 2026-05-01 10:20 | -15.80373 | 167.35757 | 33958 ft | 461 kts | 332° |
| 2026-05-01 10:21 | -15.77447 | 167.34371 | 34103 ft | 461 kts | 332° |
| 2026-05-01 10:21 | -15.71650 | 167.31625 | 34379 ft | 460 kts | 332° |
| 2026-05-01 10:21 | -15.68733 | 167.30244 | 34525 ft | 459 kts | 332° |
| 2026-05-01 10:22 | -15.62920 | 167.27494 | 34811 ft | 458 kts | 332° |
| 2026-05-01 10:22 | -15.57096 | 167.24732 | 34948 ft | 461 kts | 333° |
| 2026-05-01 10:23 | -15.54196 | 167.23308 | 35064 ft | 460 kts | 329° |
| 2026-05-01 10:23 | -15.49097 | 167.19486 | 35463 ft | 452 kts | 315° |
| 2026-05-01 10:23 | -15.46947 | 167.17110 | 35597 ft | 451 kts | 309° |
| 2026-05-01 10:24 | -15.42993 | 167.12050 | 35853 ft | 451 kts | 309° |
| 2026-05-01 10:24 | -15.39006 | 167.07049 | 36175 ft | 450 kts | 309° |
| 2026-05-01 10:25 | -15.35025 | 167.02060 | 36513 ft | 448 kts | 309° |
| 2026-05-01 10:25 | -15.31064 | 166.97097 | 36849 ft | 447 kts | 309° |
| 2026-05-01 10:26 | -15.29078 | 166.94609 | 37012 ft | 447 kts | 309° |
| 2026-05-01 10:26 | -15.27099 | 166.92131 | 37194 ft | 446 kts | 309° |
| 2026-05-01 10:26 | -15.23136 | 166.87176 | 37368 ft | 448 kts | 308° |
| 2026-05-01 10:27 | -15.19143 | 166.82175 | 37537 ft | 452 kts | 309° |
| 2026-05-01 10:27 | -15.15130 | 166.77161 | 37864 ft | 451 kts | 309° |
| 2026-05-01 10:28 | -15.13152 | 166.74690 | 37964 ft | 451 kts | 309° |
| 2026-05-01 10:28 | -15.07152 | 166.67202 | 37962 ft | 449 kts | 309° |
| 2026-05-01 10:29 | -15.01155 | 166.59719 | 37950 ft | 450 kts | 309° |
| 2026-05-01 10:30 | -14.93190 | 166.49790 | 37942 ft | 450 kts | 309° |
| 2026-05-01 10:31 | -14.85853 | 166.40659 | 37940 ft | 451 kts | 310° |
| 2026-05-01 10:32 | -14.79831 | 166.33172 | 37925 ft | 452 kts | 310° |
| 2026-05-01 10:33 | -14.71784 | 166.23176 | 37932 ft | 452 kts | 310° |
| 2026-05-01 10:34 | -14.65760 | 166.15701 | 37938 ft | 453 kts | 310° |
| 2026-05-01 10:34 | -14.61721 | 166.10694 | 37933 ft | 453 kts | 310° |
| 2026-05-01 10:35 | -14.55657 | 166.03182 | 37931 ft | 453 kts | 310° |
| 2026-05-01 10:35 | -14.51611 | 165.98174 | 37935 ft | 454 kts | 310° |
| 2026-05-01 10:36 | -14.45612 | 165.90760 | 37919 ft | 448 kts | 310° |
| 2026-05-01 10:37 | -14.41614 | 165.85813 | 37916 ft | 449 kts | 310° |
| 2026-05-01 10:37 | -14.35608 | 165.78396 | 37939 ft | 449 kts | 310° |
| 2026-05-01 10:38 | -14.31597 | 165.73445 | 37944 ft | 450 kts | 310° |
| 2026-05-01 10:38 | -14.27574 | 165.68484 | 37922 ft | 450 kts | 310° |
| 2026-05-01 10:39 | -14.23554 | 165.63531 | 37929 ft | 450 kts | 310° |
| 2026-05-01 10:39 | -14.19530 | 165.58575 | 37935 ft | 450 kts | 310° |
| 2026-05-01 10:40 | -14.15521 | 165.53639 | 37931 ft | 450 kts | 310° |
| 2026-05-01 10:40 | -14.11521 | 165.48719 | 37930 ft | 450 kts | 310° |
| 2026-05-01 10:41 | -14.07499 | 165.43775 | 37945 ft | 449 kts | 310° |
| 2026-05-01 10:42 | -14.01468 | 165.36365 | 37907 ft | 450 kts | 310° |
| 2026-05-01 10:42 | -13.97475 | 165.31464 | 37910 ft | 450 kts | 310° |
| 2026-05-01 10:43 | -13.93444 | 165.26518 | 37936 ft | 449 kts | 310° |
| 2026-05-01 10:43 | -13.89411 | 165.21585 | 37940 ft | 449 kts | 310° |
| 2026-05-01 10:44 | -13.85398 | 165.16690 | 37930 ft | 452 kts | 310° |
| 2026-05-01 10:44 | -13.81326 | 165.11710 | 37907 ft | 456 kts | 310° |
| 2026-05-01 10:45 | -13.77222 | 165.06687 | 37927 ft | 459 kts | 310° |
| 2026-05-01 10:45 | -13.73129 | 165.01674 | 37921 ft | 461 kts | 311° |
| 2026-05-01 10:46 | -13.68983 | 164.96600 | 37924 ft | 463 kts | 311° |
| 2026-05-01 10:46 | -13.64827 | 164.91518 | 37922 ft | 465 kts | 311° |
| 2026-05-01 10:47 | -13.60652 | 164.86418 | 37931 ft | 466 kts | 311° |
| 2026-05-01 10:47 | -13.56498 | 164.81346 | 37931 ft | 466 kts | 311° |
| 2026-05-01 10:48 | -13.52312 | 164.76238 | 37932 ft | 466 kts | 311° |
| 2026-05-01 10:48 | -13.48129 | 164.71137 | 37932 ft | 466 kts | 311° |
| 2026-05-01 10:49 | -13.43965 | 164.66066 | 37926 ft | 467 kts | 310° |
| 2026-05-01 10:49 | -13.39772 | 164.60958 | 37935 ft | 467 kts | 310° |
| 2026-05-01 10:50 | -13.35576 | 164.55849 | 37919 ft | 468 kts | 310° |
| 2026-05-01 10:50 | -13.31359 | 164.50718 | 37927 ft | 469 kts | 311° |
| 2026-05-01 10:51 | -13.27138 | 164.45588 | 37926 ft | 470 kts | 311° |
| 2026-05-01 10:51 | -13.22935 | 164.40480 | 37933 ft | 471 kts | 311° |
| 2026-05-01 10:52 | -13.18412 | 164.35615 | 37930 ft | 471 kts | 315° |
| 2026-05-01 10:52 | -13.13810 | 164.30841 | 37936 ft | 470 kts | 315° |
| 2026-05-01 10:53 | -13.09215 | 164.26059 | 37935 ft | 470 kts | 315° |
| 2026-05-01 10:53 | -13.04653 | 164.21317 | 37934 ft | 469 kts | 315° |
| 2026-05-01 10:54 | -13.00066 | 164.16552 | 37919 ft | 469 kts | 315° |
| 2026-05-01 10:54 | -12.95452 | 164.11765 | 37911 ft | 471 kts | 315° |
| 2026-05-01 10:55 | -12.90841 | 164.06983 | 37905 ft | 472 kts | 315° |
| 2026-05-01 10:55 | -12.86221 | 164.02194 | 37934 ft | 472 kts | 315° |
| 2026-05-01 10:56 | -12.81625 | 163.97432 | 37920 ft | 473 kts | 315° |
| 2026-05-01 10:56 | -12.76991 | 163.92634 | 37923 ft | 473 kts | 315° |
| 2026-05-01 10:57 | -12.72379 | 163.87863 | 37934 ft | 473 kts | 315° |
| 2026-05-01 10:57 | -12.67733 | 163.83058 | 37929 ft | 473 kts | 315° |
| 2026-05-01 10:58 | -12.63126 | 163.78297 | 37920 ft | 473 kts | 315° |
| 2026-05-01 10:58 | -12.58500 | 163.73518 | 37927 ft | 473 kts | 315° |
| 2026-05-01 10:59 | -12.53853 | 163.68720 | 37938 ft | 472 kts | 315° |
| 2026-05-01 10:59 | -12.49212 | 163.63930 | 37915 ft | 473 kts | 315° |
| 2026-05-01 11:00 | -12.44609 | 163.59182 | 37936 ft | 472 kts | 315° |
| 2026-05-01 11:00 | -12.39974 | 163.54407 | 37920 ft | 472 kts | 315° |
| 2026-05-01 11:01 | -12.35344 | 163.49636 | 37927 ft | 472 kts | 315° |
| 2026-05-01 11:01 | -12.30708 | 163.44862 | 37911 ft | 472 kts | 315° |
| 2026-05-01 11:02 | -12.26100 | 163.40120 | 37911 ft | 472 kts | 315° |
| 2026-05-01 11:02 | -12.21468 | 163.35353 | 37892 ft | 473 kts | 316° |
| 2026-05-01 11:03 | -12.16809 | 163.30565 | 37914 ft | 474 kts | 315° |
| 2026-05-01 11:03 | -12.12193 | 163.25822 | 37910 ft | 474 kts | 316° |
| 2026-05-01 11:04 | -12.07514 | 163.21016 | 37890 ft | 475 kts | 316° |
| 2026-05-01 11:04 | -12.02880 | 163.16259 | 37930 ft | 473 kts | 316° |
| 2026-05-01 11:05 | -11.98212 | 163.11472 | 37900 ft | 475 kts | 315° |
| 2026-05-01 11:05 | -11.93584 | 163.06726 | 37929 ft | 474 kts | 316° |
| 2026-05-01 11:06 | -11.88928 | 163.01955 | 37903 ft | 474 kts | 315° |
| 2026-05-01 11:06 | -11.84252 | 162.97167 | 37897 ft | 475 kts | 316° |
| 2026-05-01 11:07 | -11.77268 | 162.90018 | 37917 ft | 474 kts | 316° |
| 2026-05-01 11:07 | -11.72626 | 162.85269 | 37934 ft | 473 kts | 316° |
| 2026-05-01 11:08 | -11.67970 | 162.80509 | 37905 ft | 474 kts | 316° |
| 2026-05-01 11:09 | -11.60998 | 162.73384 | 37893 ft | 474 kts | 316° |
| 2026-05-01 11:09 | -11.56336 | 162.68623 | 37893 ft | 474 kts | 316° |
| 2026-05-01 11:10 | -11.49342 | 162.61485 | 37895 ft | 474 kts | 316° |
| 2026-05-01 11:10 | -11.44671 | 162.56724 | 37902 ft | 475 kts | 315° |
| 2026-05-01 11:11 | -11.40034 | 162.51996 | 37912 ft | 474 kts | 316° |
| 2026-05-01 11:11 | -11.35361 | 162.47234 | 37896 ft | 475 kts | 316° |
| 2026-05-01 11:12 | -11.30685 | 162.42471 | 37900 ft | 475 kts | 316° |
| 2026-05-01 11:12 | -11.26009 | 162.37712 | 37908 ft | 475 kts | 316° |
| 2026-05-01 11:13 | -11.21325 | 162.32947 | 37916 ft | 475 kts | 316° |
| 2026-05-01 11:13 | -11.16671 | 162.28213 | 37908 ft | 475 kts | 316° |
| 2026-05-01 11:14 | -11.11979 | 162.23445 | 37882 ft | 477 kts | 316° |
| 2026-05-01 11:14 | -11.07276 | 162.18667 | 37895 ft | 478 kts | 316° |
| 2026-05-01 11:15 | -11.02557 | 162.13877 | 37901 ft | 479 kts | 316° |
| 2026-05-01 11:15 | -10.97868 | 162.09117 | 37912 ft | 480 kts | 316° |
| 2026-05-01 11:16 | -10.93132 | 162.04313 | 37923 ft | 480 kts | 316° |
| 2026-05-01 11:16 | -10.89188 | 162.00313 | 37923 ft | 480 kts | 316° |
| 2026-05-01 11:17 | -10.84444 | 161.95505 | 37921 ft | 480 kts | 316° |
| 2026-05-01 11:17 | -10.79703 | 161.90702 | 37921 ft | 480 kts | 316° |
| 2026-05-01 11:18 | -10.74990 | 161.85929 | 37923 ft | 481 kts | 316° |
| 2026-05-01 11:18 | -10.70234 | 161.81113 | 37902 ft | 483 kts | 316° |
| 2026-05-01 11:19 | -10.65464 | 161.76289 | 37913 ft | 483 kts | 316° |
| 2026-05-01 11:19 | -10.60691 | 161.71464 | 37914 ft | 484 kts | 316° |
| 2026-05-01 11:20 | -10.55917 | 161.66639 | 37922 ft | 484 kts | 316° |
| 2026-05-01 11:20 | -10.51170 | 161.61843 | 37917 ft | 484 kts | 316° |
| 2026-05-01 11:21 | -10.46385 | 161.57012 | 37917 ft | 484 kts | 316° |
| 2026-05-01 11:21 | -10.41602 | 161.52185 | 37922 ft | 483 kts | 316° |
| 2026-05-01 11:22 | -10.36827 | 161.47366 | 37917 ft | 483 kts | 316° |
| 2026-05-01 11:22 | -10.32057 | 161.42557 | 37912 ft | 482 kts | 316° |
| 2026-05-01 11:23 | -10.27325 | 161.37787 | 37909 ft | 482 kts | 316° |
| 2026-05-01 11:23 | -10.22565 | 161.32990 | 37951 ft | 481 kts | 316° |
| 2026-05-01 11:24 | -10.17883 | 161.28271 | 37898 ft | 468 kts | 316° |
| 2026-05-01 11:24 | -10.13240 | 161.23598 | 37612 ft | 471 kts | 316° |
| 2026-05-01 11:25 | -10.10922 | 161.21254 | 37365 ft | 469 kts | 316° |
| 2026-05-01 11:25 | -10.06320 | 161.16609 | 36861 ft | 469 kts | 316° |
| 2026-05-01 11:25 | -10.03987 | 161.14263 | 36610 ft | 470 kts | 316° |
| 2026-05-01 11:26 | -10.01657 | 161.11922 | 36377 ft | 471 kts | 316° |
| 2026-05-01 11:26 | -9.96994 | 161.07239 | 35877 ft | 475 kts | 316° |
| 2026-05-01 11:26 | -9.94645 | 161.04879 | 35643 ft | 475 kts | 316° |
| 2026-05-01 11:27 | -9.92305 | 161.02531 | 35419 ft | 476 kts | 316° |
| 2026-05-01 11:27 | -9.89952 | 161.00169 | 35180 ft | 476 kts | 316° |
| 2026-05-01 11:27 | -9.87579 | 160.97786 | 34949 ft | 477 kts | 316° |
| 2026-05-01 11:27 | -9.85326 | 160.95305 | 34716 ft | 479 kts | 310° |
| 2026-05-01 11:28 | -9.83379 | 160.92601 | 34490 ft | 481 kts | 304° |
| 2026-05-01 11:28 | -9.81529 | 160.89769 | 34253 ft | 481 kts | 305° |
| 2026-05-01 11:28 | -9.79658 | 160.86944 | 33700 ft | 483 kts | 305° |
| 2026-05-01 11:29 | -9.75866 | 160.81265 | 31454 ft | 492 kts | 305° |
| 2026-05-01 11:29 | -9.73930 | 160.78371 | 30048 ft | 498 kts | 305° |
| 2026-05-01 11:29 | -9.70081 | 160.72619 | 27976 ft | 491 kts | 305° |
| 2026-05-01 11:30 | -9.68187 | 160.69786 | 27368 ft | 483 kts | 305° |
| 2026-05-01 11:30 | -9.66320 | 160.66999 | 27044 ft | 470 kts | 304° |
| 2026-05-01 11:30 | -9.64515 | 160.64300 | 26743 ft | 456 kts | 305° |
| 2026-05-01 11:30 | -9.62737 | 160.61646 | 26006 ft | 455 kts | 304° |
| 2026-05-01 11:31 | -9.60964 | 160.59002 | 25384 ft | 451 kts | 304° |
| 2026-05-01 11:31 | -9.59196 | 160.56365 | 24738 ft | 449 kts | 304° |
| 2026-05-01 11:31 | -9.57434 | 160.53736 | 24066 ft | 448 kts | 304° |
| 2026-05-01 11:31 | -9.55707 | 160.51159 | 23369 ft | 447 kts | 303° |
| 2026-05-01 11:32 | -9.53970 | 160.48563 | 22708 ft | 442 kts | 303° |
| 2026-05-01 11:32 | -9.52250 | 160.45993 | 22042 ft | 438 kts | 303° |
| 2026-05-01 11:32 | -9.50552 | 160.43460 | 21395 ft | 433 kts | 303° |
| 2026-05-01 11:32 | -9.48863 | 160.40940 | 20680 ft | 430 kts | 303° |
| 2026-05-01 11:33 | -9.47191 | 160.38446 | 20082 ft | 424 kts | 303° |
| 2026-05-01 11:33 | -9.45562 | 160.36018 | 19419 ft | 421 kts | 303° |
| 2026-05-01 11:33 | -9.43926 | 160.33577 | 18764 ft | 417 kts | 303° |
| 2026-05-01 11:33 | -9.42307 | 160.31165 | 18099 ft | 413 kts | 303° |
| 2026-05-01 11:34 | -9.40700 | 160.28769 | 17477 ft | 406 kts | 303° |
| 2026-05-01 11:34 | -9.39121 | 160.26415 | 16850 ft | 399 kts | 303° |
| 2026-05-01 11:34 | -9.37569 | 160.24102 | 16228 ft | 393 kts | 303° |
| 2026-05-01 11:34 | -9.36060 | 160.21856 | 15609 ft | 388 kts | 303° |
| 2026-05-01 11:35 | -9.34553 | 160.19610 | 14967 ft | 384 kts | 303° |
| 2026-05-01 11:35 | -9.33054 | 160.17374 | 14381 ft | 378 kts | 304° |
| 2026-05-01 11:35 | -9.31585 | 160.15185 | 13779 ft | 374 kts | 304° |
| 2026-05-01 11:35 | -9.30132 | 160.13022 | 13186 ft | 368 kts | 304° |
| 2026-05-01 11:36 | -9.28704 | 160.10897 | 12632 ft | 362 kts | 304° |
| 2026-05-01 11:36 | -9.27298 | 160.08805 | 12059 ft | 356 kts | 304° |
| 2026-05-01 11:36 | -9.25913 | 160.06744 | 11489 ft | 351 kts | 304° |
| 2026-05-01 11:36 | -9.24567 | 160.04746 | 10957 ft | 346 kts | 303° |
| 2026-05-01 11:37 | -9.23223 | 160.02737 | 10409 ft | 344 kts | 302° |
| 2026-05-01 11:37 | -9.22295 | 160.00540 | 10205 ft | 335 kts | 282° |
| 2026-05-01 11:37 | -9.22193 | 159.98251 | 10059 ft | 316 kts | 260° |
| 2026-05-01 11:37 | -9.22876 | 159.96206 | 9728 ft | 302 kts | 238° |
| 2026-05-01 11:38 | -9.24185 | 159.94642 | 9413 ft | 288 kts | 219° |
| 2026-05-01 11:38 | -9.25759 | 159.93352 | 9289 ft | 295 kts | 216° |
| 2026-05-01 11:38 | -9.27360 | 159.92041 | 9161 ft | 294 kts | 218° |
| 2026-05-01 11:38 | -9.28884 | 159.90668 | 9020 ft | 293 kts | 221° |
| 2026-05-01 11:39 | -9.30358 | 159.89238 | 8677 ft | 293 kts | 223° |
| 2026-05-01 11:39 | -9.31790 | 159.87788 | 8213 ft | 289 kts | 223° |
| 2026-05-01 11:39 | -9.33199 | 159.86338 | 7675 ft | 287 kts | 223° |
| 2026-05-01 11:39 | -9.34594 | 159.84900 | 7176 ft | 283 kts | 223° |
| 2026-05-01 11:40 | -9.35929 | 159.83526 | 7025 ft | 266 kts | 223° |
| 2026-05-01 11:40 | -9.37165 | 159.82254 | 6877 ft | 247 kts | 223° |
| 2026-05-01 11:40 | -9.38341 | 159.81047 | 6785 ft | 228 kts | 223° |
| 2026-05-01 11:40 | -9.39403 | 159.79958 | 6662 ft | 212 kts | 223° |
| 2026-05-01 11:41 | -9.40437 | 159.78962 | 6528 ft | 197 kts | 214° |
| 2026-05-01 11:41 | -9.41638 | 159.78512 | 6405 ft | 177 kts | 181° |
| 2026-05-01 11:41 | -9.42803 | 159.78748 | 6134 ft | 169 kts | 153° |
| 2026-05-01 11:41 | -9.43862 | 159.79274 | 5825 ft | 171 kts | 152° |
| 2026-05-01 11:42 | -9.44928 | 159.79784 | 5621 ft | 163 kts | 154° |
| 2026-05-01 11:42 | -9.45915 | 159.80218 | 5381 ft | 154 kts | 156° |
| 2026-05-01 11:42 | -9.46923 | 159.80634 | 4918 ft | 161 kts | 156° |
| 2026-05-01 11:42 | -9.48013 | 159.81061 | 4309 ft | 175 kts | 157° |
| 2026-05-01 11:43 | -9.49184 | 159.81531 | 3690 ft | 186 kts | 157° |
| 2026-05-01 11:43 | -9.50397 | 159.82035 | 3214 ft | 187 kts | 154° |
| 2026-05-01 11:43 | -9.51300 | 159.82914 | 2925 ft | 177 kts | 118° |
| 2026-05-01 11:44 | -9.51078 | 159.85063 | 2686 ft | 148 kts | 62° |
| 2026-05-01 11:44 | -9.50598 | 159.85993 | 2598 ft | 149 kts | 65° |
| 2026-05-01 11:44 | -9.50176 | 159.86927 | 2626 ft | 145 kts | 68° |
| 2026-05-01 11:44 | -9.49787 | 159.87886 | 2484 ft | 146 kts | 70° |
| 2026-05-01 11:45 | -9.49425 | 159.88828 | 2261 ft | 145 kts | 70° |
| 2026-05-01 11:45 | -9.49065 | 159.89787 | 2045 ft | 143 kts | 70° |
| 2026-05-01 11:45 | -9.48708 | 159.90717 | 1831 ft | 147 kts | 70° |
| 2026-05-01 11:45 | -9.48335 | 159.91680 | 1612 ft | 143 kts | 70° |
| 2026-05-01 11:46 | -9.47966 | 159.92629 | 1408 ft | 148 kts | 70° |
| 2026-05-01 11:46 | -9.47594 | 159.93579 | 1172 ft | 141 kts | 69° |
| 2026-05-01 11:46 | -9.47208 | 159.94523 | 978 ft | 146 kts | 68° |
| 2026-05-01 11:46 | -9.46824 | 159.95446 | 748 ft | 143 kts | 68° |
| 2026-05-01 11:47 | -9.46773 | 159.95601 | 666 ft | 0 kts | 16° |
| 2026-05-01 11:47 | -9.46539 | 159.95585 | 562 ft | 27 kts | 357° |